sensor_id;sensor_type;location;lat;lon;timestamp;P1;durP1;ratioP1;P2;durP2;ratioP2
71303;SDS011;59091;47.446;19.148;2022-12-05T00:03:39;12.75;;;5.95;;
71303;SDS011;59091;47.446;19.148;2022-12-05T00:06:05;16.60;;;7.18;;
71303;SDS011;59091;47.446;19.148;2022-12-05T00:08:30;17.08;;;6.28;;
71303;SDS011;59091;47.446;19.148;2022-12-05T00:10:56;6.50;;;4.10;;
71303;SDS011;59091;47.446;19.148;2022-12-05T00:13:21;6.93;;;4.47;;
71303;SDS011;59091;47.446;19.148;2022-12-05T00:15:46;8.60;;;4.63;;
71303;SDS011;59091;47.446;19.148;2022-12-05T00:18:12;6.72;;;4.32;;
71303;SDS011;59091;47.446;19.148;2022-12-05T00:20:43;8.25;;;4.68;;
71303;SDS011;59091;47.446;19.148;2022-12-05T00:23:09;8.93;;;5.22;;
71303;SDS011;59091;47.446;19.148;2022-12-05T00:25:35;7.57;;;5.03;;
71303;SDS011;59091;47.446;19.148;2022-12-05T00:28:00;7.13;;;4.82;;
71303;SDS011;59091;47.446;19.148;2022-12-05T00:30:26;8.85;;;5.38;;
71303;SDS011;59091;47.446;19.148;2022-12-05T00:32:51;13.48;;;5.10;;
71303;SDS011;59091;47.446;19.148;2022-12-05T00:35:17;6.45;;;4.55;;
71303;SDS011;59091;47.446;19.148;2022-12-05T00:37:42;7.07;;;4.45;;
71303;SDS011;59091;47.446;19.148;2022-12-05T00:40:07;8.45;;;5.50;;
71303;SDS011;59091;47.446;19.148;2022-12-05T00:42:33;8.15;;;4.75;;
71303;SDS011;59091;47.446;19.148;2022-12-05T00:44:58;8.73;;;4.63;;
71303;SDS011;59091;47.446;19.148;2022-12-05T00:47:24;7.85;;;5.10;;
71303;SDS011;59091;47.446;19.148;2022-12-05T00:49:49;7.57;;;4.93;;
71303;SDS011;59091;47.446;19.148;2022-12-05T00:52:15;9.07;;;5.00;;
71303;SDS011;59091;47.446;19.148;2022-12-05T00:54:40;13.07;;;5.90;;
71303;SDS011;59091;47.446;19.148;2022-12-05T00:57:05;9.55;;;5.78;;
71303;SDS011;59091;47.446;19.148;2022-12-05T00:59:31;11.20;;;5.55;;
71303;SDS011;59091;47.446;19.148;2022-12-05T01:01:56;9.57;;;5.70;;
71303;SDS011;59091;47.446;19.148;2022-12-05T01:04:23;10.50;;;5.97;;
71303;SDS011;59091;47.446;19.148;2022-12-05T01:06:49;9.10;;;5.90;;
71303;SDS011;59091;47.446;19.148;2022-12-05T01:09:18;11.50;;;6.20;;
71303;SDS011;59091;47.446;19.148;2022-12-05T01:11:45;10.05;;;5.95;;
71303;SDS011;59091;47.446;19.148;2022-12-05T01:14:12;10.70;;;6.40;;
71303;SDS011;59091;47.446;19.148;2022-12-05T01:16:39;11.30;;;6.10;;
71303;SDS011;59091;47.446;19.148;2022-12-05T01:19:13;11.50;;;5.57;;
71303;SDS011;59091;47.446;19.148;2022-12-05T01:21:40;12.15;;;5.50;;
71303;SDS011;59091;47.446;19.148;2022-12-05T01:24:06;9.93;;;5.60;;
71303;SDS011;59091;47.446;19.148;2022-12-05T01:26:32;11.80;;;5.22;;
71303;SDS011;59091;47.446;19.148;2022-12-05T01:28:58;9.52;;;5.20;;
71303;SDS011;59091;47.446;19.148;2022-12-05T01:33:50;10.73;;;5.45;;
71303;SDS011;59091;47.446;19.148;2022-12-05T01:36:17;9.43;;;5.15;;
71303;SDS011;59091;47.446;19.148;2022-12-05T01:38:43;7.35;;;4.20;;
71303;SDS011;59091;47.446;19.148;2022-12-05T01:41:10;8.15;;;4.88;;
71303;SDS011;59091;47.446;19.148;2022-12-05T01:43:58;8.23;;;4.88;;
71303;SDS011;59091;47.446;19.148;2022-12-05T01:46:24;9.13;;;4.75;;
71303;SDS011;59091;47.446;19.148;2022-12-05T01:48:51;6.95;;;4.53;;
71303;SDS011;59091;47.446;19.148;2022-12-05T01:51:19;8.57;;;5.18;;
71303;SDS011;59091;47.446;19.148;2022-12-05T01:53:44;7.55;;;4.18;;
71303;SDS011;59091;47.446;19.148;2022-12-05T01:56:10;8.55;;;4.90;;
71303;SDS011;59091;47.446;19.148;2022-12-05T01:58:37;8.55;;;4.93;;
71303;SDS011;59091;47.446;19.148;2022-12-05T02:01:04;7.93;;;5.13;;
71303;SDS011;59091;47.446;19.148;2022-12-05T02:03:30;7.70;;;4.82;;
71303;SDS011;59091;47.446;19.148;2022-12-05T02:05:56;6.93;;;4.57;;
71303;SDS011;59091;47.446;19.148;2022-12-05T02:08:23;8.48;;;4.60;;
71303;SDS011;59091;47.446;19.148;2022-12-05T02:10:52;8.85;;;5.63;;
71303;SDS011;59091;47.446;19.148;2022-12-05T02:16:21;11.65;;;5.47;;
71303;SDS011;59091;47.446;19.148;2022-12-05T02:30:19;9.18;;;5.28;;
71303;SDS011;59091;47.446;19.148;2022-12-05T02:35:34;9.20;;;5.20;;
71303;SDS011;59091;47.446;19.148;2022-12-05T02:44:04;7.45;;;4.72;;
71303;SDS011;59091;47.446;19.148;2022-12-05T02:46:36;10.25;;;5.60;;
71303;SDS011;59091;47.446;19.148;2022-12-05T02:49:05;10.70;;;5.68;;
71303;SDS011;59091;47.446;19.148;2022-12-05T02:51:34;9.45;;;5.35;;
71303;SDS011;59091;47.446;19.148;2022-12-05T02:54:05;12.05;;;5.88;;
71303;SDS011;59091;47.446;19.148;2022-12-05T02:56:35;11.48;;;5.93;;
71303;SDS011;59091;47.446;19.148;2022-12-05T02:59:01;10.15;;;5.60;;
71303;SDS011;59091;47.446;19.148;2022-12-05T03:01:27;9.40;;;5.47;;
71303;SDS011;59091;47.446;19.148;2022-12-05T03:03:55;10.48;;;5.68;;
71303;SDS011;59091;47.446;19.148;2022-12-05T03:08:52;9.32;;;5.57;;
71303;SDS011;59091;47.446;19.148;2022-12-05T03:11:22;10.25;;;5.80;;
71303;SDS011;59091;47.446;19.148;2022-12-05T03:13:51;9.35;;;5.28;;
71303;SDS011;59091;47.446;19.148;2022-12-05T03:16:27;13.57;;;6.15;;
71303;SDS011;59091;47.446;19.148;2022-12-05T03:19:26;8.90;;;5.93;;
71303;SDS011;59091;47.446;19.148;2022-12-05T03:22:34;11.57;;;5.53;;
71303;SDS011;59091;47.446;19.148;2022-12-05T03:25:05;12.90;;;6.28;;
71303;SDS011;59091;47.446;19.148;2022-12-05T03:27:36;9.85;;;5.95;;
71303;SDS011;59091;47.446;19.148;2022-12-05T03:30:17;10.00;;;5.80;;
71303;SDS011;59091;47.446;19.148;2022-12-05T03:35:42;9.93;;;5.78;;
71303;SDS011;59091;47.446;19.148;2022-12-05T03:38:27;13.30;;;5.97;;
71303;SDS011;59091;47.446;19.148;2022-12-05T03:41:15;11.35;;;5.68;;
71303;SDS011;59091;47.446;19.148;2022-12-05T03:44:07;10.25;;;6.07;;
71303;SDS011;59091;47.446;19.148;2022-12-05T03:46:39;10.10;;;6.40;;
71303;SDS011;59091;47.446;19.148;2022-12-05T03:51:57;10.55;;;5.78;;
71303;SDS011;59091;47.446;19.148;2022-12-05T03:54:56;13.88;;;6.18;;
71303;SDS011;59091;47.446;19.148;2022-12-05T04:02:43;9.07;;;6.07;;
71303;SDS011;59091;47.446;19.148;2022-12-05T04:05:26;11.25;;;6.47;;
71303;SDS011;59091;47.446;19.148;2022-12-05T04:08:12;10.75;;;5.70;;
71303;SDS011;59091;47.446;19.148;2022-12-05T04:10:42;11.55;;;6.57;;
71303;SDS011;59091;47.446;19.148;2022-12-05T04:13:17;14.32;;;6.28;;
71303;SDS011;59091;47.446;19.148;2022-12-05T04:15:54;13.68;;;6.28;;
71303;SDS011;59091;47.446;19.148;2022-12-05T04:18:43;11.73;;;6.85;;
71303;SDS011;59091;47.446;19.148;2022-12-05T04:21:14;11.13;;;5.90;;
71303;SDS011;59091;47.446;19.148;2022-12-05T04:24:03;10.55;;;5.82;;
71303;SDS011;59091;47.446;19.148;2022-12-05T04:26:51;15.50;;;6.65;;
71303;SDS011;59091;47.446;19.148;2022-12-05T04:29:28;10.27;;;6.28;;
71303;SDS011;59091;47.446;19.148;2022-12-05T04:31:59;11.23;;;6.15;;
71303;SDS011;59091;47.446;19.148;2022-12-05T04:34:30;10.63;;;6.53;;
71303;SDS011;59091;47.446;19.148;2022-12-05T04:37:05;11.40;;;6.38;;
71303;SDS011;59091;47.446;19.148;2022-12-05T04:39:48;12.35;;;6.78;;
71303;SDS011;59091;47.446;19.148;2022-12-05T04:42:19;8.77;;;5.80;;
71303;SDS011;59091;47.446;19.148;2022-12-05T04:45:06;10.82;;;6.22;;
71303;SDS011;59091;47.446;19.148;2022-12-05T04:47:38;12.85;;;6.45;;
71303;SDS011;59091;47.446;19.148;2022-12-05T04:50:08;10.13;;;6.25;;
71303;SDS011;59091;47.446;19.148;2022-12-05T04:52:36;11.88;;;6.93;;
71303;SDS011;59091;47.446;19.148;2022-12-05T04:55:11;13.00;;;6.57;;
71303;SDS011;59091;47.446;19.148;2022-12-05T05:00:19;10.15;;;6.80;;
71303;SDS011;59091;47.446;19.148;2022-12-05T05:02:55;10.85;;;6.57;;
71303;SDS011;59091;47.446;19.148;2022-12-05T05:05:40;17.00;;;6.63;;
71303;SDS011;59091;47.446;19.148;2022-12-05T05:08:19;9.48;;;5.88;;
71303;SDS011;59091;47.446;19.148;2022-12-05T05:13:26;12.05;;;6.18;;
71303;SDS011;59091;47.446;19.148;2022-12-05T05:15:51;11.35;;;6.45;;
71303;SDS011;59091;47.446;19.148;2022-12-05T05:18:17;10.50;;;6.45;;
71303;SDS011;59091;47.446;19.148;2022-12-05T05:20:42;10.55;;;6.50;;
71303;SDS011;59091;47.446;19.148;2022-12-05T05:23:08;12.05;;;7.22;;
71303;SDS011;59091;47.446;19.148;2022-12-05T05:25:33;11.32;;;6.55;;
71303;SDS011;59091;47.446;19.148;2022-12-05T05:27:59;10.65;;;6.45;;
71303;SDS011;59091;47.446;19.148;2022-12-05T05:30:24;9.68;;;6.13;;
71303;SDS011;59091;47.446;19.148;2022-12-05T05:32:50;10.75;;;6.45;;
71303;SDS011;59091;47.446;19.148;2022-12-05T05:35:16;13.32;;;6.93;;
71303;SDS011;59091;47.446;19.148;2022-12-05T05:37:41;10.43;;;6.43;;
71303;SDS011;59091;47.446;19.148;2022-12-05T05:40:08;12.00;;;6.78;;
71303;SDS011;59091;47.446;19.148;2022-12-05T05:42:35;9.85;;;6.70;;
71303;SDS011;59091;47.446;19.148;2022-12-05T05:45:01;9.23;;;6.40;;
71303;SDS011;59091;47.446;19.148;2022-12-05T05:47:26;10.57;;;6.75;;
71303;SDS011;59091;47.446;19.148;2022-12-05T05:49:52;9.50;;;6.20;;
71303;SDS011;59091;47.446;19.148;2022-12-05T05:52:18;13.80;;;6.78;;
71303;SDS011;59091;47.446;19.148;2022-12-05T05:54:43;9.60;;;6.75;;
71303;SDS011;59091;47.446;19.148;2022-12-05T05:57:09;12.18;;;7.07;;
71303;SDS011;59091;47.446;19.148;2022-12-05T05:59:34;16.70;;;7.47;;
71303;SDS011;59091;47.446;19.148;2022-12-05T06:01:59;12.15;;;7.68;;
71303;SDS011;59091;47.446;19.148;2022-12-05T06:04:25;11.38;;;7.00;;
71303;SDS011;59091;47.446;19.148;2022-12-05T06:06:50;10.90;;;7.07;;
71303;SDS011;59091;47.446;19.148;2022-12-05T06:09:16;9.95;;;6.57;;
71303;SDS011;59091;47.446;19.148;2022-12-05T06:11:41;13.57;;;7.25;;
71303;SDS011;59091;47.446;19.148;2022-12-05T06:14:07;13.57;;;7.95;;
71303;SDS011;59091;47.446;19.148;2022-12-05T06:16:33;10.57;;;6.78;;
71303;SDS011;59091;47.446;19.148;2022-12-05T06:18:58;11.68;;;6.65;;
71303;SDS011;59091;47.446;19.148;2022-12-05T06:21:24;11.27;;;7.05;;
71303;SDS011;59091;47.446;19.148;2022-12-05T06:23:49;10.98;;;6.47;;
71303;SDS011;59091;47.446;19.148;2022-12-05T06:26:16;14.73;;;6.95;;
71303;SDS011;59091;47.446;19.148;2022-12-05T06:28:43;11.77;;;6.95;;
71303;SDS011;59091;47.446;19.148;2022-12-05T06:31:19;13.40;;;8.00;;
71303;SDS011;59091;47.446;19.148;2022-12-05T06:33:47;11.43;;;7.10;;
71303;SDS011;59091;47.446;19.148;2022-12-05T06:36:16;12.95;;;7.55;;
71303;SDS011;59091;47.446;19.148;2022-12-05T06:38:43;12.38;;;6.65;;
71303;SDS011;59091;47.446;19.148;2022-12-05T06:41:10;11.88;;;7.28;;
71303;SDS011;59091;47.446;19.148;2022-12-05T06:43:38;11.93;;;7.32;;
71303;SDS011;59091;47.446;19.148;2022-12-05T06:46:04;12.70;;;7.47;;
71303;SDS011;59091;47.446;19.148;2022-12-05T06:48:30;10.88;;;7.35;;
71303;SDS011;59091;47.446;19.148;2022-12-05T06:50:56;11.50;;;7.28;;
71303;SDS011;59091;47.446;19.148;2022-12-05T06:53:21;10.95;;;7.25;;
71303;SDS011;59091;47.446;19.148;2022-12-05T06:55:56;12.23;;;8.02;;
71303;SDS011;59091;47.446;19.148;2022-12-05T06:58:26;13.02;;;8.02;;
71303;SDS011;59091;47.446;19.148;2022-12-05T07:00:52;12.52;;;7.53;;
71303;SDS011;59091;47.446;19.148;2022-12-05T07:03:36;12.80;;;7.60;;
71303;SDS011;59091;47.446;19.148;2022-12-05T07:06:02;12.50;;;7.45;;
71303;SDS011;59091;47.446;19.148;2022-12-05T07:08:29;13.73;;;7.38;;
71303;SDS011;59091;47.446;19.148;2022-12-05T07:10:55;11.77;;;7.35;;
71303;SDS011;59091;47.446;19.148;2022-12-05T07:13:21;12.88;;;7.57;;
71303;SDS011;59091;47.446;19.148;2022-12-05T07:15:47;10.82;;;6.75;;
71303;SDS011;59091;47.446;19.148;2022-12-05T07:18:13;10.00;;;7.10;;
71303;SDS011;59091;47.446;19.148;2022-12-05T07:20:39;16.15;;;8.20;;
71303;SDS011;59091;47.446;19.148;2022-12-05T07:23:05;13.23;;;7.30;;
71303;SDS011;59091;47.446;19.148;2022-12-05T07:25:30;11.52;;;7.07;;
71303;SDS011;59091;47.446;19.148;2022-12-05T07:27:55;13.23;;;6.95;;
71303;SDS011;59091;47.446;19.148;2022-12-05T07:30:21;10.63;;;7.18;;
71303;SDS011;59091;47.446;19.148;2022-12-05T07:32:46;11.90;;;7.35;;
71303;SDS011;59091;47.446;19.148;2022-12-05T07:35:11;11.32;;;7.03;;
71303;SDS011;59091;47.446;19.148;2022-12-05T07:37:37;13.32;;;6.97;;
71303;SDS011;59091;47.446;19.148;2022-12-05T07:40:02;10.70;;;6.65;;
71303;SDS011;59091;47.446;19.148;2022-12-05T07:42:28;11.48;;;6.97;;
71303;SDS011;59091;47.446;19.148;2022-12-05T07:44:53;17.67;;;7.07;;
71303;SDS011;59091;47.446;19.148;2022-12-05T07:47:19;13.68;;;6.90;;
71303;SDS011;59091;47.446;19.148;2022-12-05T07:49:44;11.88;;;6.70;;
71303;SDS011;59091;47.446;19.148;2022-12-05T07:52:10;15.18;;;7.00;;
71303;SDS011;59091;47.446;19.148;2022-12-05T07:54:35;11.43;;;6.82;;
71303;SDS011;59091;47.446;19.148;2022-12-05T07:57:00;9.73;;;6.28;;
71303;SDS011;59091;47.446;19.148;2022-12-05T07:59:26;12.65;;;6.95;;
71303;SDS011;59091;47.446;19.148;2022-12-05T08:01:51;11.13;;;6.55;;
71303;SDS011;59091;47.446;19.148;2022-12-05T08:04:16;10.00;;;6.28;;
71303;SDS011;59091;47.446;19.148;2022-12-05T08:06:42;12.18;;;6.80;;
71303;SDS011;59091;47.446;19.148;2022-12-05T08:09:07;10.13;;;7.07;;
71303;SDS011;59091;47.446;19.148;2022-12-05T08:11:33;10.23;;;6.22;;
71303;SDS011;59091;47.446;19.148;2022-12-05T08:14:02;10.95;;;6.57;;
71303;SDS011;59091;47.446;19.148;2022-12-05T08:16:29;9.10;;;6.30;;
71303;SDS011;59091;47.446;19.148;2022-12-05T08:19:03;10.25;;;6.75;;
71303;SDS011;59091;47.446;19.148;2022-12-05T08:21:30;9.73;;;6.50;;
71303;SDS011;59091;47.446;19.148;2022-12-05T08:23:55;14.18;;;5.93;;
71303;SDS011;59091;47.446;19.148;2022-12-05T08:26:22;8.90;;;6.07;;
71303;SDS011;59091;47.446;19.148;2022-12-05T08:28:50;10.00;;;6.50;;
71303;SDS011;59091;47.446;19.148;2022-12-05T08:31:21;9.35;;;6.47;;
71303;SDS011;59091;47.446;19.148;2022-12-05T08:33:48;11.18;;;6.28;;
71303;SDS011;59091;47.446;19.148;2022-12-05T08:36:15;9.60;;;5.80;;
71303;SDS011;59091;47.446;19.148;2022-12-05T08:38:41;9.93;;;6.65;;
71303;SDS011;59091;47.446;19.148;2022-12-05T08:41:08;8.55;;;6.25;;
71303;SDS011;59091;47.446;19.148;2022-12-05T08:43:35;11.18;;;5.95;;
71303;SDS011;59091;47.446;19.148;2022-12-05T08:46:01;12.15;;;6.40;;
71303;SDS011;59091;47.446;19.148;2022-12-05T08:48:27;9.48;;;6.55;;
71303;SDS011;59091;47.446;19.148;2022-12-05T08:50:54;7.85;;;5.97;;
71303;SDS011;59091;47.446;19.148;2022-12-05T08:53:19;8.88;;;6.10;;
71303;SDS011;59091;47.446;19.148;2022-12-05T08:55:45;9.57;;;6.63;;
71303;SDS011;59091;47.446;19.148;2022-12-05T08:58:10;10.50;;;6.40;;
71303;SDS011;59091;47.446;19.148;2022-12-05T09:00:37;9.45;;;6.40;;
71303;SDS011;59091;47.446;19.148;2022-12-05T09:03:03;11.38;;;5.95;;
71303;SDS011;59091;47.446;19.148;2022-12-05T09:05:31;10.50;;;6.95;;
71303;SDS011;59091;47.446;19.148;2022-12-05T09:07:57;10.38;;;6.45;;
71303;SDS011;59091;47.446;19.148;2022-12-05T09:10:23;8.45;;;6.03;;
71303;SDS011;59091;47.446;19.148;2022-12-05T09:12:50;10.90;;;6.35;;
71303;SDS011;59091;47.446;19.148;2022-12-05T09:15:15;8.00;;;6.40;;
71303;SDS011;59091;47.446;19.148;2022-12-05T09:17:41;8.85;;;6.07;;
71303;SDS011;59091;47.446;19.148;2022-12-05T09:20:07;8.50;;;6.07;;
71303;SDS011;59091;47.446;19.148;2022-12-05T09:22:33;13.45;;;6.47;;
71303;SDS011;59091;47.446;19.148;2022-12-05T09:24:58;9.90;;;6.85;;
71303;SDS011;59091;47.446;19.148;2022-12-05T09:27:25;9.60;;;6.78;;
71303;SDS011;59091;47.446;19.148;2022-12-05T09:29:52;9.15;;;6.20;;
71303;SDS011;59091;47.446;19.148;2022-12-05T09:32:17;10.30;;;6.97;;
71303;SDS011;59091;47.446;19.148;2022-12-05T09:34:42;10.77;;;6.50;;
71303;SDS011;59091;47.446;19.148;2022-12-05T09:37:08;10.40;;;7.57;;
71303;SDS011;59091;47.446;19.148;2022-12-05T09:39:33;13.38;;;6.63;;
71303;SDS011;59091;47.446;19.148;2022-12-05T09:42:08;11.20;;;6.40;;
71303;SDS011;59091;47.446;19.148;2022-12-05T09:47:47;9.20;;;6.63;;
71303;SDS011;59091;47.446;19.148;2022-12-05T09:50:20;8.85;;;6.57;;
71303;SDS011;59091;47.446;19.148;2022-12-05T09:55:22;8.90;;;7.30;;
71303;SDS011;59091;47.446;19.148;2022-12-05T09:57:51;10.45;;;7.57;;
71303;SDS011;59091;47.446;19.148;2022-12-05T10:00:20;11.25;;;7.95;;
71303;SDS011;59091;47.446;19.148;2022-12-05T10:02:57;12.65;;;7.80;;
71303;SDS011;59091;47.446;19.148;2022-12-05T10:06:02;13.55;;;6.95;;
71303;SDS011;59091;47.446;19.148;2022-12-05T10:11:09;15.02;;;7.97;;
71303;SDS011;59091;47.446;19.148;2022-12-05T10:14:03;11.60;;;7.88;;
71303;SDS011;59091;47.446;19.148;2022-12-05T10:16:48;12.82;;;7.63;;
71303;SDS011;59091;47.446;19.148;2022-12-05T10:19:23;11.48;;;7.88;;
71303;SDS011;59091;47.446;19.148;2022-12-05T10:22:41;11.50;;;7.32;;
71303;SDS011;59091;47.446;19.148;2022-12-05T10:24:59;10.35;;;6.97;;
71303;SDS011;59091;47.446;19.148;2022-12-05T10:27:30;11.40;;;7.60;;
71303;SDS011;59091;47.446;19.148;2022-12-05T10:32:48;15.23;;;7.70;;
71303;SDS011;59091;47.446;19.148;2022-12-05T10:35:21;10.77;;;7.57;;
71303;SDS011;59091;47.446;19.148;2022-12-05T10:37:53;9.80;;;7.82;;
71303;SDS011;59091;47.446;19.148;2022-12-05T10:40:21;11.77;;;7.53;;
71303;SDS011;59091;47.446;19.148;2022-12-05T10:42:48;11.55;;;8.07;;
71303;SDS011;59091;47.446;19.148;2022-12-05T10:45:19;10.27;;;7.50;;
71303;SDS011;59091;47.446;19.148;2022-12-05T10:47:46;8.75;;;7.15;;
71303;SDS011;59091;47.446;19.148;2022-12-05T10:52:56;12.15;;;8.25;;
71303;SDS011;59091;47.446;19.148;2022-12-05T10:55:26;11.75;;;8.32;;
71303;SDS011;59091;47.446;19.148;2022-12-05T10:58:10;11.20;;;8.40;;
71303;SDS011;59091;47.446;19.148;2022-12-05T11:00:36;12.60;;;8.73;;
71303;SDS011;59091;47.446;19.148;2022-12-05T11:03:18;12.38;;;8.65;;
71303;SDS011;59091;47.446;19.148;2022-12-05T11:05:55;11.73;;;7.95;;
71303;SDS011;59091;47.446;19.148;2022-12-05T11:08:30;19.73;;;8.68;;
71303;SDS011;59091;47.446;19.148;2022-12-05T11:11:00;13.65;;;8.50;;
71303;SDS011;59091;47.446;19.148;2022-12-05T11:14:04;14.52;;;9.15;;
71303;SDS011;59091;47.446;19.148;2022-12-05T11:16:32;10.90;;;8.13;;
71303;SDS011;59091;47.446;19.148;2022-12-05T11:19:41;15.98;;;9.18;;
71303;SDS011;59091;47.446;19.148;2022-12-05T11:21:48;12.82;;;8.88;;
71303;SDS011;59091;47.446;19.148;2022-12-05T11:24:21;11.55;;;8.60;;
71303;SDS011;59091;47.446;19.148;2022-12-05T11:26:47;10.60;;;8.33;;
71303;SDS011;59091;47.446;19.148;2022-12-05T11:32:05;12.90;;;8.98;;
71303;SDS011;59091;47.446;19.148;2022-12-05T11:34:46;12.98;;;9.15;;
71303;SDS011;59091;47.446;19.148;2022-12-05T11:37:19;11.15;;;8.68;;
71303;SDS011;59091;47.446;19.148;2022-12-05T11:39:48;12.93;;;9.07;;
71303;SDS011;59091;47.446;19.148;2022-12-05T11:48:11;14.05;;;9.40;;
71303;SDS011;59091;47.446;19.148;2022-12-05T11:51:27;12.27;;;8.85;;
71303;SDS011;59091;47.446;19.148;2022-12-05T11:54:11;13.30;;;9.13;;
71303;SDS011;59091;47.446;19.148;2022-12-05T11:56:56;11.77;;;9.13;;
71303;SDS011;59091;47.446;19.148;2022-12-05T11:59:39;11.25;;;8.80;;
71303;SDS011;59091;47.446;19.148;2022-12-05T12:11:48;14.50;;;9.82;;
71303;SDS011;59091;47.446;19.148;2022-12-05T12:14:50;13.38;;;9.38;;
71303;SDS011;59091;47.446;19.148;2022-12-05T12:17:36;17.10;;;10.15;;
71303;SDS011;59091;47.446;19.148;2022-12-05T12:20:29;14.95;;;11.00;;
71303;SDS011;59091;47.446;19.148;2022-12-05T12:23:54;12.88;;;9.35;;
71303;SDS011;59091;47.446;19.148;2022-12-05T12:36:49;17.60;;;11.02;;
71303;SDS011;59091;47.446;19.148;2022-12-05T12:42:26;17.17;;;11.93;;
71303;SDS011;59091;47.446;19.148;2022-12-05T12:45:18;16.33;;;11.88;;
71303;SDS011;59091;47.446;19.148;2022-12-05T12:50:53;22.02;;;11.77;;
71303;SDS011;59091;47.446;19.148;2022-12-05T13:04:16;21.70;;;13.95;;
71303;SDS011;59091;47.446;19.148;2022-12-05T13:09:23;23.73;;;14.75;;
71303;SDS011;59091;47.446;19.148;2022-12-05T13:12:06;24.98;;;15.80;;
71303;SDS011;59091;47.446;19.148;2022-12-05T13:14:35;26.23;;;16.15;;
71303;SDS011;59091;47.446;19.148;2022-12-05T13:17:03;24.90;;;15.60;;
71303;SDS011;59091;47.446;19.148;2022-12-05T13:19:31;20.98;;;14.45;;
71303;SDS011;59091;47.446;19.148;2022-12-05T13:22:06;23.38;;;14.52;;
71303;SDS011;59091;47.446;19.148;2022-12-05T13:24:33;20.85;;;13.82;;
71303;SDS011;59091;47.446;19.148;2022-12-05T13:27:00;25.10;;;14.35;;
71303;SDS011;59091;47.446;19.148;2022-12-05T13:29:33;22.55;;;14.07;;
71303;SDS011;59091;47.446;19.148;2022-12-05T13:32:00;18.75;;;13.55;;
71303;SDS011;59091;47.446;19.148;2022-12-05T13:36:56;19.63;;;13.10;;
71303;SDS011;59091;47.446;19.148;2022-12-05T13:39:41;21.30;;;13.73;;
71303;SDS011;59091;47.446;19.148;2022-12-05T13:42:37;20.40;;;13.23;;
71303;SDS011;59091;47.446;19.148;2022-12-05T13:47:32;19.35;;;13.10;;
71303;SDS011;59091;47.446;19.148;2022-12-05T13:52:31;18.52;;;12.20;;
71303;SDS011;59091;47.446;19.148;2022-12-05T13:57:56;20.90;;;11.98;;
71303;SDS011;59091;47.446;19.148;2022-12-05T14:00:35;17.73;;;11.88;;
71303;SDS011;59091;47.446;19.148;2022-12-05T14:03:17;24.40;;;13.63;;
71303;SDS011;59091;47.446;19.148;2022-12-05T14:06:04;34.72;;;16.75;;
71303;SDS011;59091;47.446;19.148;2022-12-05T14:15:51;18.00;;;11.38;;
71303;SDS011;59091;47.446;19.148;2022-12-05T14:18:21;16.63;;;10.75;;
71303;SDS011;59091;47.446;19.148;2022-12-05T14:24:14;17.52;;;11.90;;
71303;SDS011;59091;47.446;19.148;2022-12-05T14:34:48;21.10;;;12.32;;
71303;SDS011;59091;47.446;19.148;2022-12-05T14:40:15;20.80;;;12.20;;
71303;SDS011;59091;47.446;19.148;2022-12-05T14:42:51;17.65;;;11.45;;
71303;SDS011;59091;47.446;19.148;2022-12-05T14:45:34;17.80;;;11.80;;
71303;SDS011;59091;47.446;19.148;2022-12-05T14:50:39;15.57;;;11.18;;
71303;SDS011;59091;47.446;19.148;2022-12-05T14:56:12;17.20;;;10.98;;
71303;SDS011;59091;47.446;19.148;2022-12-05T14:58:56;18.83;;;11.48;;
71303;SDS011;59091;47.446;19.148;2022-12-05T15:01:26;21.02;;;12.00;;
71303;SDS011;59091;47.446;19.148;2022-12-05T15:04:03;19.38;;;11.15;;
71303;SDS011;59091;47.446;19.148;2022-12-05T15:06:46;15.63;;;10.35;;
71303;SDS011;59091;47.446;19.148;2022-12-05T15:12:15;15.80;;;10.95;;
71303;SDS011;59091;47.446;19.148;2022-12-05T15:15:06;15.93;;;11.00;;
71303;SDS011;59091;47.446;19.148;2022-12-05T15:17:38;13.32;;;9.60;;
71303;SDS011;59091;47.446;19.148;2022-12-05T15:20:12;15.80;;;10.40;;
71303;SDS011;59091;47.446;19.148;2022-12-05T15:22:41;17.40;;;10.40;;
71303;SDS011;59091;47.446;19.148;2022-12-05T15:25:39;18.10;;;10.98;;
71303;SDS011;59091;47.446;19.148;2022-12-05T15:28:05;18.58;;;10.80;;
71303;SDS011;59091;47.446;19.148;2022-12-05T15:30:43;18.42;;;10.32;;
71303;SDS011;59091;47.446;19.148;2022-12-05T15:33:19;12.80;;;9.50;;
71303;SDS011;59091;47.446;19.148;2022-12-05T15:35:45;13.32;;;9.05;;
71303;SDS011;59091;47.446;19.148;2022-12-05T15:38:24;11.70;;;8.35;;
71303;SDS011;59091;47.446;19.148;2022-12-05T15:40:53;14.18;;;8.45;;
71303;SDS011;59091;47.446;19.148;2022-12-05T15:45:55;12.65;;;8.88;;
71303;SDS011;59091;47.446;19.148;2022-12-05T15:48:31;12.63;;;8.95;;
71303;SDS011;59091;47.446;19.148;2022-12-05T15:50:56;15.43;;;8.20;;
71303;SDS011;59091;47.446;19.148;2022-12-05T15:53:35;14.52;;;7.57;;
71303;SDS011;59091;47.446;19.148;2022-12-05T15:56:11;13.73;;;7.40;;
71303;SDS011;59091;47.446;19.148;2022-12-05T16:01:18;13.35;;;7.30;;
71303;SDS011;59091;47.446;19.148;2022-12-05T16:03:46;11.13;;;7.97;;
71303;SDS011;59091;47.446;19.148;2022-12-05T16:09:23;13.45;;;6.72;;
71303;SDS011;59091;47.446;19.148;2022-12-05T16:11:54;12.98;;;7.97;;
71303;SDS011;59091;47.446;19.148;2022-12-05T16:14:23;20.05;;;8.13;;
71303;SDS011;59091;47.446;19.148;2022-12-05T16:16:54;12.70;;;8.07;;
71303;SDS011;59091;47.446;19.148;2022-12-05T16:19:24;10.10;;;7.05;;
71303;SDS011;59091;47.446;19.148;2022-12-05T16:22:16;13.93;;;8.65;;
71303;SDS011;59091;47.446;19.148;2022-12-05T16:24:46;18.13;;;8.80;;
71303;SDS011;59091;47.446;19.148;2022-12-05T16:30:05;14.70;;;8.85;;
71303;SDS011;59091;47.446;19.148;2022-12-05T16:32:30;24.35;;;9.32;;
71303;SDS011;59091;47.446;19.148;2022-12-05T16:34:59;17.48;;;9.57;;
71303;SDS011;59091;47.446;19.148;2022-12-05T16:37:25;17.05;;;8.90;;
71303;SDS011;59091;47.446;19.148;2022-12-05T16:39:52;17.38;;;9.93;;
71303;SDS011;59091;47.446;19.148;2022-12-05T16:42:21;17.77;;;9.77;;
71303;SDS011;59091;47.446;19.148;2022-12-05T16:47:22;16.98;;;9.40;;
71303;SDS011;59091;47.446;19.148;2022-12-05T16:49:49;15.80;;;9.40;;
71303;SDS011;59091;47.446;19.148;2022-12-05T16:52:15;18.98;;;10.10;;
71303;SDS011;59091;47.446;19.148;2022-12-05T16:54:42;13.88;;;8.65;;
71303;SDS011;59091;47.446;19.148;2022-12-05T16:57:12;17.83;;;9.63;;
71303;SDS011;59091;47.446;19.148;2022-12-05T16:59:39;16.23;;;9.32;;
71303;SDS011;59091;47.446;19.148;2022-12-05T17:02:10;17.23;;;9.10;;
71303;SDS011;59091;47.446;19.148;2022-12-05T17:04:37;15.73;;;10.02;;
71303;SDS011;59091;47.446;19.148;2022-12-05T17:07:02;16.10;;;9.68;;
71303;SDS011;59091;47.446;19.148;2022-12-05T17:09:28;16.35;;;9.63;;
71303;SDS011;59091;47.446;19.148;2022-12-05T17:11:55;16.52;;;9.60;;
71303;SDS011;59091;47.446;19.148;2022-12-05T17:14:31;23.00;;;10.52;;
71303;SDS011;59091;47.446;19.148;2022-12-05T17:16:56;20.73;;;11.35;;
71303;SDS011;59091;47.446;19.148;2022-12-05T17:19:22;16.10;;;9.88;;
71303;SDS011;59091;47.446;19.148;2022-12-05T17:21:48;18.42;;;11.02;;
71303;SDS011;59091;47.446;19.148;2022-12-05T17:24:15;16.20;;;10.35;;
71303;SDS011;59091;47.446;19.148;2022-12-05T17:26:41;15.10;;;9.68;;
71303;SDS011;59091;47.446;19.148;2022-12-05T17:29:07;17.42;;;10.07;;